createdAt,value
2022-10-06T00:04:11.741Z,101186.38
2022-10-06T00:09:14.328Z,101188.19
2022-10-06T00:14:17.094Z,101201.19
2022-10-06T00:19:19.743Z,101194.88
2022-10-06T00:24:22.317Z,101194.34
2022-10-06T00:29:24.998Z,101191.00
2022-10-06T00:34:27.558Z,101191.38
2022-10-06T00:39:30.201Z,101182.56
2022-10-06T00:44:33.286Z,101178.38
2022-10-06T00:49:38.138Z,101175.13
2022-10-06T00:54:41.110Z,101187.09
2022-10-06T00:59:43.777Z,101185.13
2022-10-06T01:04:48.600Z,101183.25
2022-10-06T01:09:51.242Z,101180.44
2022-10-06T01:14:54.320Z,101190.72
2022-10-06T01:20:15.475Z,101193.16
2022-10-06T01:25:19.194Z,101199.13
2022-10-06T01:30:26.908Z,101200.59
2022-10-06T01:35:29.645Z,101206.38
2022-10-06T01:40:32.397Z,101204.38
2022-10-06T01:45:34.981Z,101207.41
2022-10-06T01:50:37.649Z,101215.72
2022-10-06T01:55:41.047Z,101207.31
2022-10-06T02:00:43.886Z,101206.50
2022-10-06T02:05:46.581Z,101202.44
2022-10-06T02:10:49.159Z,101194.03
2022-10-06T02:15:56.462Z,101202.22
2022-10-06T02:20:59.611Z,101211.13
2022-10-06T02:26:05.087Z,101206.34
2022-10-06T02:31:09.056Z,101201.53
2022-10-06T02:36:16.710Z,101201.91
2022-10-06T02:41:19.419Z,101209.00
2022-10-06T02:46:24.220Z,101208.19
2022-10-06T02:51:27.020Z,101203.25
2022-10-06T02:56:29.584Z,101204.22
2022-10-06T03:01:32.888Z,101209.50
2022-10-06T03:06:35.529Z,101211.69
2022-10-06T03:11:40.773Z,101210.50
2022-10-06T03:16:43.788Z,101213.28
2022-10-06T03:21:46.447Z,101217.25
2022-10-06T03:26:49.140Z,101214.84
2022-10-06T03:31:51.776Z,101219.69
2022-10-06T03:36:54.350Z,101212.00
2022-10-06T03:41:56.927Z,101217.78
2022-10-06T03:46:59.603Z,101220.66
2022-10-06T03:52:02.272Z,101216.94
2022-10-06T03:57:04.854Z,101218.13
2022-10-06T04:02:07.551Z,101228.84
2022-10-06T04:07:10.209Z,101228.34
2022-10-06T04:12:12.741Z,101234.59
2022-10-06T04:17:15.423Z,101235.69
2022-10-06T04:22:18.002Z,101232.22
2022-10-06T04:27:29.515Z,101229.94
2022-10-06T04:32:32.419Z,101229.19
2022-10-06T04:37:35.086Z,101237.25
2022-10-06T04:42:37.699Z,101237.50
2022-10-06T04:47:40.992Z,101236.75
2022-10-06T04:52:43.604Z,101233.53
2022-10-06T04:57:46.207Z,101236.28
2022-10-06T05:02:49.016Z,101235.56
2022-10-06T05:07:52.783Z,101234.59
2022-10-06T05:12:57.805Z,101241.66
2022-10-06T05:18:00.414Z,101247.69
2022-10-06T05:23:07.267Z,101251.91
2022-10-06T05:28:09.964Z,101244.31
2022-10-06T05:33:12.629Z,101248.16
2022-10-06T05:38:15.310Z,101244.69
2022-10-06T05:43:18.332Z,101250.13
2022-10-06T05:48:21.222Z,101252.50
2022-10-06T05:53:23.850Z,101258.38
2022-10-06T05:58:27.052Z,101254.50
2022-10-06T06:03:29.673Z,101266.50
2022-10-06T06:08:32.748Z,101267.88
2022-10-06T06:13:35.955Z,101274.72
2022-10-06T06:18:41.413Z,101284.16
2022-10-06T06:23:46.565Z,101288.72
2022-10-06T06:28:51.097Z,101293.97
2022-10-06T06:33:56.502Z,101293.91
2022-10-06T06:38:59.191Z,101298.56
2022-10-06T06:44:01.781Z,101308.97
2022-10-06T06:49:05.984Z,101305.56
2022-10-06T06:54:10.011Z,101312.00
2022-10-06T06:59:13.330Z,101304.97
2022-10-06T07:04:17.240Z,101317.41
2022-10-06T07:09:20.902Z,101316.78
2022-10-06T07:14:24.370Z,101326.06
2022-10-06T07:19:45.599Z,101331.31
2022-10-06T07:25:06.736Z,101329.72
2022-10-06T07:30:12.029Z,101323.50
2022-10-06T07:35:16.784Z,101332.34
2022-10-06T07:40:19.593Z,101330.53
2022-10-06T07:45:38.448Z,101333.00
2022-10-06T07:50:42.583Z,101332.06
2022-10-06T07:55:47.578Z,101324.56
2022-10-06T08:00:52.840Z,101325.06
2022-10-06T08:05:59.824Z,101326.56
2022-10-06T08:11:02.833Z,101319.63
2022-10-06T08:16:07.704Z,101323.06
2022-10-06T08:21:15.854Z,101331.75
2022-10-06T08:26:20.080Z,101335.44
2022-10-06T08:31:23.588Z,101336.03
2022-10-06T08:36:31.415Z,101340.81
2022-10-06T08:41:48.495Z,101343.22
2022-10-06T08:47:05.854Z,101333.63
2022-10-06T08:52:31.030Z,101339.19
2022-10-06T08:57:51.701Z,101336.09
2022-10-06T09:02:55.069Z,101325.81
2022-10-06T09:08:24.635Z,101326.13
2022-10-06T09:13:33.465Z,101318.59
2022-10-06T09:19:08.323Z,101323.84
2022-10-06T09:24:30.248Z,101326.81
2022-10-06T09:29:32.893Z,101326.56
2022-10-06T09:34:36.041Z,101328.84
2022-10-06T09:39:44.547Z,101325.19
2022-10-06T09:44:50.249Z,101329.69
2022-10-06T09:50:04.128Z,101323.34
2022-10-06T09:55:19.128Z,101325.03
2022-10-06T10:00:33.005Z,101327.84
2022-10-06T10:05:38.298Z,101328.28
2022-10-06T10:10:41.488Z,101326.25
2022-10-06T10:15:54.788Z,101319.56
2022-10-06T10:21:08.544Z,101312.50
2022-10-06T10:27:08.537Z,101303.44
2022-10-06T10:32:19.404Z,101309.44
2022-10-06T10:37:29.896Z,101301.13
2022-10-06T10:42:56.397Z,101301.78
2022-10-06T10:48:07.029Z,101299.34
2022-10-06T10:53:20.212Z,101301.50
2022-10-06T10:58:37.617Z,101299.50
2022-10-06T11:03:40.373Z,101294.78
2022-10-06T11:08:49.570Z,101287.22
2022-10-06T11:13:54.222Z,101282.38
2022-10-06T11:19:03.175Z,101266.19
2022-10-06T11:24:20.933Z,101275.25
2022-10-06T11:29:36.293Z,101278.84
2022-10-06T11:34:41.573Z,101257.22
2022-10-06T11:40:15.063Z,101255.22
2022-10-06T11:45:23.634Z,101249.00
2022-10-06T11:50:36.676Z,101251.47
2022-10-06T11:55:39.446Z,101253.97
2022-10-06T12:00:45.184Z,101245.22
2022-10-06T12:05:56.373Z,101244.56
2022-10-06T12:10:59.349Z,101249.31
2022-10-06T12:22:22.552Z,101238.47
2022-10-06T12:27:27.172Z,101240.56
2022-10-06T12:32:38.999Z,101241.59
2022-10-06T12:37:42.471Z,101238.91
2022-10-06T12:42:45.572Z,101239.53
2022-10-06T12:47:49.008Z,101235.81
2022-10-06T12:53:01.053Z,101232.50
2022-10-06T12:58:04.245Z,101228.53
2022-10-06T13:03:09.103Z,101213.19
2022-10-06T13:08:25.078Z,101222.72
2022-10-06T13:13:28.287Z,101221.84
2022-10-06T13:18:32.929Z,101211.63
2022-10-06T13:23:37.666Z,101213.69
2022-10-06T13:28:43.240Z,101208.28
2022-10-06T13:33:48.613Z,101206.25
2022-10-06T13:38:51.459Z,101202.91
2022-10-06T13:44:02.004Z,101201.44
2022-10-06T13:49:19.874Z,101201.19
2022-10-06T13:54:31.781Z,101204.25
2022-10-06T13:59:37.230Z,101218.97
2022-10-06T14:04:39.873Z,101208.81
2022-10-06T14:09:43.197Z,101213.59
2022-10-06T14:14:49.283Z,101214.47
2022-10-06T14:19:52.059Z,101216.34
2022-10-06T14:24:54.979Z,101218.63
2022-10-06T14:29:57.893Z,101228.97
2022-10-06T14:35:01.501Z,101229.16
2022-10-06T14:40:05.937Z,101233.03
2022-10-06T14:45:13.800Z,101233.38
2022-10-06T14:50:16.406Z,101237.66
2022-10-06T14:55:19.048Z,101243.63
2022-10-06T15:00:22.915Z,101258.00
2022-10-06T15:05:25.551Z,101259.31
2022-10-06T15:10:28.155Z,101262.09
2022-10-06T15:15:33.808Z,101264.47
2022-10-06T15:20:36.509Z,101270.38
2022-10-06T15:25:57.653Z,101265.28
2022-10-06T15:31:00.403Z,101279.00
2022-10-06T15:36:17.009Z,101280.13
2022-10-06T15:41:19.770Z,101286.00
2022-10-06T15:46:33.126Z,101295.53
2022-10-06T15:51:38.397Z,101295.00
2022-10-06T15:56:42.321Z,101301.66
2022-10-06T16:01:47.462Z,101294.91
2022-10-06T16:06:54.191Z,101303.59
2022-10-06T16:11:58.272Z,101303.41
2022-10-06T16:17:05.483Z,101314.41
2022-10-06T16:22:11.239Z,101321.22
2022-10-06T16:27:15.352Z,101326.00
2022-10-06T16:32:18.538Z,101318.34
2022-10-06T16:37:21.337Z,101334.91
2022-10-06T16:42:24.633Z,101349.03
2022-10-06T16:47:27.289Z,101344.38
2022-10-06T16:52:29.890Z,101356.47
2022-10-06T16:57:32.587Z,101357.63
2022-10-06T17:02:36.960Z,101364.38
2022-10-06T17:07:39.846Z,101360.38
2022-10-06T17:12:42.693Z,101360.91
2022-10-06T17:17:45.532Z,101371.38
2022-10-06T17:22:48.792Z,101360.19
2022-10-06T17:27:51.447Z,101376.19
2022-10-06T17:32:54.331Z,101372.53
2022-10-06T17:37:57.079Z,101378.75
2022-10-06T17:42:59.705Z,101376.44
2022-10-06T17:48:02.796Z,101371.75
2022-10-06T17:53:05.436Z,101375.97
2022-10-06T17:58:08.555Z,101389.50
2022-10-06T18:03:11.379Z,101377.81
2022-10-06T18:08:14.131Z,101375.78
2022-10-06T18:13:16.765Z,101375.13
2022-10-06T18:18:25.187Z,101387.53
2022-10-06T18:23:28.250Z,101389.16
2022-10-06T18:28:31.005Z,101395.00
2022-10-06T18:38:57.928Z,101404.81
2022-10-06T18:44:00.711Z,101403.28
2022-10-06T18:49:15.815Z,101403.41
2022-10-06T18:54:23.908Z,101396.38
2022-10-06T18:59:27.940Z,101404.81
2022-10-06T19:04:35.757Z,101402.44
2022-10-06T19:09:41.512Z,101407.56
2022-10-06T19:14:47.973Z,101417.09
2022-10-06T19:19:54.987Z,101416.56
2022-10-06T19:24:57.700Z,101414.34
2022-10-06T19:30:00.406Z,101424.66
2022-10-06T19:35:09.220Z,101421.78
2022-10-06T19:40:12.910Z,101430.75
2022-10-06T19:45:16.625Z,101429.53
2022-10-06T19:50:19.545Z,101427.13
2022-10-06T19:55:23.821Z,101447.25
2022-10-06T20:00:27.232Z,101451.69
2022-10-06T20:05:29.924Z,101448.31
2022-10-06T20:10:34.648Z,101453.13
2022-10-06T20:15:37.485Z,101455.88
2022-10-06T20:20:40.222Z,101458.16
2022-10-06T20:25:42.841Z,101462.09
2022-10-06T20:30:50.137Z,101470.03
2022-10-06T20:35:52.851Z,101464.31
2022-10-06T20:41:18.051Z,101465.63
2022-10-06T20:46:21.547Z,101476.34
2022-10-06T20:51:27.728Z,101464.59
2022-10-06T20:56:34.190Z,101468.88
2022-10-06T21:01:38.281Z,101466.19
2022-10-06T21:06:41.872Z,101461.84
2022-10-06T21:11:44.640Z,101471.13
2022-10-06T21:16:48.447Z,101473.25
2022-10-06T21:21:52.195Z,101477.34
2022-10-06T21:26:55.040Z,101470.25
2022-10-06T21:31:57.667Z,101480.19
2022-10-06T21:37:00.264Z,101459.34
2022-10-06T21:42:02.954Z,101473.38
2022-10-06T21:47:05.672Z,101473.84
2022-10-06T21:52:08.766Z,101481.13
2022-10-06T21:57:11.510Z,101480.72
2022-10-06T22:02:14.057Z,101476.69
2022-10-06T22:07:17.101Z,101474.59
2022-10-06T22:12:19.730Z,101482.34
2022-10-06T22:17:22.360Z,101489.06
2022-10-06T22:22:25.003Z,101482.59
2022-10-06T22:27:27.615Z,101490.19
2022-10-06T22:32:31.517Z,101488.09
2022-10-06T22:37:34.176Z,101477.31
2022-10-06T22:42:36.819Z,101482.94
2022-10-06T22:47:39.449Z,101480.53
2022-10-06T22:52:42.137Z,101474.22
2022-10-06T22:57:44.978Z,101475.38
2022-10-06T23:02:47.750Z,101469.22
2022-10-06T23:07:51.460Z,101472.13
2022-10-06T23:12:55.626Z,101452.97
2022-10-06T23:17:58.233Z,101458.03
2022-10-06T23:23:00.851Z,101456.34
2022-10-06T23:28:03.606Z,101452.00
2022-10-06T23:33:06.315Z,101460.97
2022-10-06T23:38:10.655Z,101454.81
2022-10-06T23:43:13.450Z,101463.50
2022-10-06T23:48:16.514Z,101459.28
2022-10-06T23:53:19.158Z,101463.06
2022-10-06T23:58:22.713Z,101466.16
